Time;durP1;ratioP1;P1;durP2;ratioP2;P2;SDS_P1;SDS_P2;PMS_P1;PMS_P2;Temp;Humidity;BMP_temperature;BMP_pressure;BME280_temperature;BME280_humidity;BME280_pressure;Samples;Min_cycle;Max_cycle;Signal;HPM_P1;HPM_P2
2021/07/30 00:01:07;;;;;;;11.88;7.60;;;;;;;15.77;100.00;96394.91;5016312;28;20524;-66
2021/07/30 00:03:32;;;;;;;12.68;8.00;;;;;;;15.77;100.00;96383.84;5019759;28;20132;-65
2021/07/30 00:06:01;;;;;;;15.05;8.43;;;;;;;15.73;100.00;96386.63;5022911;28;20046;-62
2021/07/30 00:08:26;;;;;;;14.30;10.27;;;;;;;15.64;100.00;96378.03;4992157;28;20363;-64
2021/07/30 00:10:55;;;;;;;12.38;8.05;;;;;;;15.67;100.00;96378.00;5009829;28;20060;-63
2021/07/30 00:13:21;;;;;;;15.25;8.80;;;;;;;15.76;100.00;96374.03;5013660;28;20038;-65
2021/07/30 00:15:47;;;;;;;14.18;6.70;;;;;;;15.70;100.00;96381.13;5017726;28;20045;-66
2021/07/30 00:18:13;;;;;;;13.27;7.20;;;;;;;15.71;100.00;96377.97;5009633;28;20118;-65
2021/07/30 00:20:38;;;;;;;21.42;13.68;;;;;;;15.62;100.00;96378.44;5014811;28;20489;-65
2021/07/30 00:23:04;;;;;;;16.20;9.65;;;;;;;15.84;100.00;96379.03;4999300;28;21202;-66
2021/07/30 00:25:29;;;;;;;15.93;7.50;;;;;;;16.02;100.00;96378.09;4995228;28;20038;-64
2021/07/30 00:27:54;;;;;;;9.73;6.78;;;;;;;15.99;100.00;96376.16;5013659;28;20129;-63
2021/07/30 00:30:20;;;;;;;11.40;7.50;;;;;;;15.68;100.00;96378.78;5019610;28;20049;-64
2021/07/30 00:32:45;;;;;;;8.27;5.95;;;;;;;15.66;100.00;96370.13;5022750;28;20053;-64
2021/07/30 00:35:11;;;;;;;12.20;6.93;;;;;;;15.74;100.00;96381.91;4999390;28;20087;-64
2021/07/30 00:37:39;;;;;;;14.52;9.15;;;;;;;15.81;100.00;96390.13;5019775;28;20045;-64
2021/07/30 00:40:06;;;;;;;13.77;7.40;;;;;;;15.85;100.00;96385.38;5011118;28;20042;-65
2021/07/30 00:42:32;;;;;;;12.00;6.70;;;;;;;15.93;100.00;96386.09;4984857;28;20070;-65
2021/07/30 00:44:58;;;;;;;14.27;7.65;;;;;;;15.96;100.00;96388.81;5013324;28;20139;-64
2021/07/30 00:47:26;;;;;;;10.82;6.60;;;;;;;16.00;100.00;96384.03;5014807;28;20789;-64
2021/07/30 00:49:51;;;;;;;12.57;7.13;;;;;;;15.96;100.00;96377.75;5012199;28;20116;-64
2021/07/30 00:52:17;;;;;;;14.88;9.02;;;;;;;15.94;100.00;96384.91;4995875;28;20160;-65
2021/07/30 00:54:42;;;;;;;10.27;6.00;;;;;;;15.88;100.00;96394.81;4999824;28;20060;-65
2021/07/30 00:57:08;;;;;;;9.93;6.65;;;;;;;15.76;100.00;96383.09;4996773;28;20125;-65
2021/07/30 00:59:33;;;;;;;13.88;7.25;;;;;;;15.60;100.00;96386.34;5015118;28;20052;-66
2021/07/30 01:01:59;;;;;;;23.48;11.30;;;;;;;15.38;100.00;96387.72;5004037;28;20041;-65
2021/07/30 01:04:24;;;;;;;30.60;12.90;;;;;;;15.16;100.00;96389.81;5012934;28;20107;-65
2021/07/30 01:06:50;;;;;;;15.93;9.23;;;;;;;15.02;100.00;96382.44;5007909;28;20034;-65
2021/07/30 01:09:15;;;;;;;13.63;7.60;;;;;;;15.02;100.00;96385.97;4996964;28;20132;-65
2021/07/30 01:11:44;;;;;;;20.75;11.73;;;;;;;15.14;100.00;96389.44;5020873;28;20037;-65
2021/07/30 01:14:09;;;;;;;16.10;10.38;;;;;;;15.08;100.00;96387.13;5013499;28;20041;-64
2021/07/30 01:16:36;;;;;;;12.20;8.52;;;;;;;15.00;100.00;96391.13;5021353;28;20488;-65
2021/07/30 01:19:01;;;;;;;11.70;7.60;;;;;;;14.96;100.00;96393.09;5020879;28;20497;-65
2021/07/30 01:21:30;;;;;;;13.05;7.97;;;;;;;15.12;100.00;96398.13;5017169;28;20045;-65
2021/07/30 01:23:55;;;;;;;9.93;6.75;;;;;;;15.14;100.00;96392.97;5001921;28;20121;-66
2021/07/30 01:26:21;;;;;;;12.82;7.63;;;;;;;15.16;100.00;96395.34;4996647;28;20144;-65
2021/07/30 01:28:47;;;;;;;13.02;7.93;;;;;;;15.12;100.00;96400.09;4997191;28;20049;-65
2021/07/30 01:31:13;;;;;;;20.35;10.75;;;;;;;15.15;100.00;96396.53;4994574;28;20048;-64
2021/07/30 01:33:38;;;;;;;20.77;13.18;;;;;;;15.26;100.00;96402.78;5001146;28;20506;-66
2021/07/30 01:36:04;;;;;;;13.38;8.98;;;;;;;15.44;100.00;96403.41;4996244;28;20200;-67
2021/07/30 01:38:33;;;;;;;19.13;7.68;;;;;;;15.61;100.00;96403.69;5001083;28;20045;-66
2021/07/30 01:41:08;;;;;;;11.80;6.97;;;;;;;15.72;100.00;96396.13;5006508;28;20037;-65
2021/07/30 01:43:42;;;;;;;15.43;7.07;;;;;;;16.13;100.00;96386.28;5001127;28;20544;-64
2021/07/30 01:46:08;;;;;;;14.90;6.00;;;;;;;16.31;99.34;96395.16;5015279;28;20099;-66
2021/07/30 01:48:33;;;;;;;11.02;7.43;;;;;;;16.31;98.60;96395.16;5021746;28;20041;-65
2021/07/30 01:50:59;;;;;;;24.30;18.05;;;;;;;16.28;98.81;96409.81;5021099;28;20119;-65
2021/07/30 01:53:24;;;;;;;24.38;16.77;;;;;;;16.15;98.28;96404.03;5015692;28;20045;-65
2021/07/30 01:55:49;;;;;;;27.10;17.42;;;;;;;16.07;99.29;96402.50;5020787;28;20037;-65
2021/07/30 01:58:15;;;;;;;20.67;14.55;;;;;;;16.11;100.00;96402.47;5010651;28;20061;-65
2021/07/30 02:00:40;;;;;;;19.85;10.85;;;;;;;16.11;100.00;96411.53;5001239;28;20049;-65
2021/07/30 02:03:05;;;;;;;23.30;9.07;;;;;;;15.91;100.00;96410.56;4994062;28;20110;-67
2021/07/30 02:05:31;;;;;;;11.30;7.32;;;;;;;15.69;100.00;96410.72;5001485;28;20606;-65
2021/07/30 02:07:56;;;;;;;11.02;7.10;;;;;;;15.46;100.00;96405.78;5009157;28;20060;-66
2021/07/30 02:10:21;;;;;;;12.15;7.32;;;;;;;15.67;100.00;96411.13;5003543;28;20155;-66
2021/07/30 02:15:37;;;;;;;11.80;6.93;;;;;;;15.71;100.00;96407.56;4990251;28;20104;-65
2021/07/30 02:18:02;;;;;;;15.23;6.63;;;;;;;15.68;100.00;96401.66;5001643;28;20037;-64
2021/07/30 02:20:28;;;;;;;12.48;6.88;;;;;;;15.70;100.00;96409.53;5014406;28;20045;-65
2021/07/30 02:22:53;;;;;;;12.68;6.70;;;;;;;15.68;100.00;96401.66;5014755;28;20052;-65
2021/07/30 02:25:18;;;;;;;12.50;6.90;;;;;;;15.58;100.00;96404.50;4998198;28;20038;-65
2021/07/30 02:27:44;;;;;;;12.75;7.25;;;;;;;15.47;100.00;96399.06;5000699;28;20050;-65
2021/07/30 02:30:10;;;;;;;9.75;6.28;;;;;;;15.18;100.00;96410.31;5000110;28;20513;-64
2021/07/30 02:32:35;;;;;;;12.90;7.95;;;;;;;15.03;100.00;96409.59;5017234;28;20406;-64
2021/07/30 02:35:01;;;;;;;22.83;8.13;;;;;;;15.16;100.00;96398.09;5021503;28;20041;-64
2021/07/30 02:37:26;;;;;;;14.20;6.80;;;;;;;15.26;100.00;96406.31;5005590;28;20067;-65
2021/07/30 02:39:52;;;;;;;17.90;7.28;;;;;;;15.27;100.00;96402.38;5011872;28;20037;-65
2021/07/30 02:42:17;;;;;;;14.52;7.20;;;;;;;14.88;100.00;96405.38;5001632;28;20382;-66
2021/07/30 02:44:42;;;;;;;16.88;8.57;;;;;;;14.54;100.00;96401.16;5011380;28;20425;-66
2021/07/30 02:47:09;;;;;;;15.75;8.30;;;;;;;14.37;100.00;96399.25;5001368;28;20486;-65
2021/07/30 02:49:35;;;;;;;21.60;9.77;;;;;;;14.32;100.00;96402.41;5007618;28;20049;-64
2021/07/30 02:52:00;;;;;;;15.55;9.07;;;;;;;14.20;100.00;96398.13;5015902;28;20052;-65
2021/07/30 02:54:25;;;;;;;19.65;9.55;;;;;;;14.09;100.00;96395.38;5008814;28;20041;-65
2021/07/30 02:56:51;;;;;;;16.95;10.77;;;;;;;14.10;100.00;96402.47;5001502;28;20461;-65
2021/07/30 02:59:16;;;;;;;18.02;9.38;;;;;;;14.11;100.00;96401.28;5004564;28;20042;-65
2021/07/30 03:01:41;;;;;;;13.68;9.10;;;;;;;14.16;100.00;96389.09;5011018;28;20088;-65
2021/07/30 03:04:07;;;;;;;13.40;9.60;;;;;;;14.19;100.00;96380.03;5006284;28;20041;-64
2021/07/30 03:06:32;;;;;;;14.30;9.02;;;;;;;14.24;100.00;96376.06;5011520;28;20119;-64
2021/07/30 03:08:58;;;;;;;13.35;9.05;;;;;;;14.25;100.00;96378.44;5002358;28;20064;-64
2021/07/30 03:11:23;;;;;;;16.63;8.70;;;;;;;14.38;100.00;96373.25;4996130;28;20123;-64
2021/07/30 03:13:48;;;;;;;12.95;8.27;;;;;;;14.46;100.00;96388.59;5000182;28;20069;-65
2021/07/30 03:16:14;;;;;;;16.58;7.68;;;;;;;14.59;100.00;96393.69;4999711;28;20368;-65
2021/07/30 03:18:40;;;;;;;13.75;8.05;;;;;;;14.70;100.00;96397.19;5014276;28;20038;-65
2021/07/30 03:21:06;;;;;;;15.93;8.05;;;;;;;14.76;100.00;96405.81;5010898;28;20057;-65
2021/07/30 03:23:31;;;;;;;11.38;7.13;;;;;;;14.71;100.00;96396.78;5013041;28;20509;-64
2021/07/30 03:25:57;;;;;;;14.88;8.25;;;;;;;14.49;100.00;96389.75;5000365;28;20038;-65
2021/07/30 03:28:22;;;;;;;14.52;7.88;;;;;;;14.31;100.00;96395.31;5000890;28;20054;-64
2021/07/30 03:30:48;;;;;;;13.85;8.38;;;;;;;14.21;100.00;96388.69;5015196;28;20050;-63
2021/07/30 03:33:13;;;;;;;12.95;8.45;;;;;;;14.18;100.00;96386.72;4997216;28;20451;-63
2021/07/30 03:35:39;;;;;;;12.13;8.05;;;;;;;14.14;100.00;96383.19;5006065;28;20430;-63
2021/07/30 03:38:05;;;;;;;16.02;10.43;;;;;;;14.08;100.00;96380.06;5013030;28;20140;-64
2021/07/30 03:40:31;;;;;;;13.13;8.30;;;;;;;14.01;100.00;96384.78;5009977;28;20116;-64
2021/07/30 03:42:56;;;;;;;14.40;8.68;;;;;;;13.96;100.00;96386.75;5020147;28;20164;-65
2021/07/30 03:45:22;;;;;;;14.68;9.63;;;;;;;13.86;100.00;96376.56;5009747;28;20049;-65
2021/07/30 03:47:47;;;;;;;21.38;9.13;;;;;;;13.79;100.00;96376.56;5023347;28;20075;-66
2021/07/30 03:50:13;;;;;;;17.48;8.90;;;;;;;13.79;100.00;96384.03;5016820;28;20125;-65
2021/07/30 03:52:38;;;;;;;16.65;8.25;;;;;;;13.83;100.00;96379.31;5021065;28;20133;-65
2021/07/30 03:55:04;;;;;;;14.88;8.20;;;;;;;13.86;100.00;96373.03;5008534;28;20045;-67
2021/07/30 03:57:30;;;;;;;13.50;7.75;;;;;;;13.84;100.00;96367.13;5014638;28;20110;-65
2021/07/30 03:59:55;;;;;;;11.60;7.57;;;;;;;13.73;100.00;96356.13;5005544;28;20491;-65
2021/07/30 04:02:21;;;;;;;12.50;8.15;;;;;;;13.69;100.00;96358.13;4982137;28;20563;-65
2021/07/30 04:04:47;;;;;;;14.55;8.02;;;;;;;13.70;100.00;96357.72;5003137;28;20073;-62
2021/07/30 04:07:12;;;;;;;10.93;7.15;;;;;;;13.72;100.00;96368.31;5006066;28;20037;-64
2021/07/30 04:09:37;;;;;;;10.95;6.97;;;;;;;13.73;100.00;96364.41;5013469;28;20510;-64
2021/07/30 04:12:03;;;;;;;11.63;7.35;;;;;;;13.80;100.00;96369.09;5021025;28;20049;-64
2021/07/30 04:14:28;;;;;;;12.13;7.60;;;;;;;13.83;100.00;96363.59;5001796;28;20366;-64
2021/07/30 04:16:54;;;;;;;12.30;7.00;;;;;;;14.01;100.00;96366.31;5020008;28;20485;-64
2021/07/30 04:19:19;;;;;;;10.50;6.35;;;;;;;14.17;100.00;96362.31;5016073;28;20038;-63
2021/07/30 04:21:44;;;;;;;10.35;7.05;;;;;;;14.11;100.00;96361.94;5021976;28;20053;-63
2021/07/30 04:24:10;;;;;;;9.95;7.05;;;;;;;14.05;100.00;96369.06;5010307;28;20038;-63
2021/07/30 04:26:35;;;;;;;11.10;6.93;;;;;;;14.03;100.00;96368.69;5014782;28;20375;-65
2021/07/30 04:29:01;;;;;;;10.65;6.93;;;;;;;13.90;100.00;96373.78;5003658;28;20141;-65
2021/07/30 04:31:26;;;;;;;10.73;7.43;;;;;;;13.89;100.00;96377.75;4998144;28;20108;-65
2021/07/30 04:33:51;;;;;;;13.23;7.40;;;;;;;13.89;100.00;96373.00;5010185;28;20620;-65
2021/07/30 04:36:17;;;;;;;14.13;7.70;;;;;;;13.93;100.00;96381.25;5006985;28;20064;-65
2021/07/30 04:38:44;;;;;;;10.23;6.93;;;;;;;14.05;100.00;96383.59;5008915;28;20107;-65
2021/07/30 04:41:09;;;;;;;12.05;7.95;;;;;;;14.18;100.00;96380.44;5012648;28;20038;-65
2021/07/30 04:43:35;;;;;;;11.35;6.70;;;;;;;14.29;100.00;96367.41;5007864;28;20430;-65
2021/07/30 04:46:01;;;;;;;10.00;6.57;;;;;;;14.52;100.00;96369.69;5013894;28;20051;-65
2021/07/30 04:48:26;;;;;;;10.45;6.25;;;;;;;14.62;100.00;96373.59;5017002;28;20154;-65
2021/07/30 04:50:51;;;;;;;38.97;7.20;;;;;;;14.66;100.00;96374.38;5026445;28;20052;-65
2021/07/30 04:53:17;;;;;;;13.35;6.55;;;;;;;14.71;100.00;96376.69;5013659;28;20041;-63
2021/07/30 04:55:42;;;;;;;9.73;6.50;;;;;;;14.82;100.00;96368.34;5022605;28;20156;-65
2021/07/30 04:58:08;;;;;;;8.95;5.72;;;;;;;14.92;99.32;96362.00;5011260;28;20742;-63
2021/07/30 05:00:33;;;;;;;14.15;6.53;;;;;;;14.99;98.59;96352.91;5017042;28;20045;-63
2021/07/30 05:02:59;;;;;;;10.68;6.68;;;;;;;15.43;95.92;96365.19;5011118;28;20045;-65
2021/07/30 05:05:24;;;;;;;10.88;6.40;;;;;;;15.67;94.91;96361.44;4992789;28;20046;-64
2021/07/30 05:07:49;;;;;;;8.57;5.70;;;;;;;15.90;92.96;96364.78;5014422;28;20061;-64
2021/07/30 05:10:15;;;;;;;9.98;6.28;;;;;;;16.20;91.96;96361.31;5003043;28;20038;-63
2021/07/30 05:12:40;;;;;;;12.45;6.00;;;;;;;16.39;90.96;96363.47;5009289;28;20069;-64
2021/07/30 05:15:06;;;;;;;9.15;5.57;;;;;;;17.12;87.13;96360.56;5007015;28;20034;-64
2021/07/30 05:17:31;;;;;;;11.40;6.38;;;;;;;17.36;84.04;96356.63;5021016;28;20390;-65
2021/07/30 05:19:57;;;;;;;13.15;5.85;;;;;;;17.84;80.92;96351.88;5002698;28;20046;-63
2021/07/30 05:22:22;;;;;;;9.48;5.60;;;;;;;18.32;79.29;96355.38;5001911;28;20096;-64
2021/07/30 05:24:48;;;;;;;15.45;6.57;;;;;;;18.23;79.53;96350.38;5012968;28;20034;-65
2021/07/30 05:27:14;;;;;;;10.55;6.15;;;;;;;17.93;80.77;96349.38;5016713;28;20486;-63
2021/07/30 05:29:39;;;;;;;12.18;5.78;;;;;;;17.94;80.05;96359.25;5003935;28;20046;-63
2021/07/30 05:32:07;;;;;;;10.57;5.57;;;;;;;17.80;79.61;96345.63;4964776;28;20133;-64
2021/07/30 05:34:33;;;;;;;11.02;5.43;;;;;;;17.57;81.02;96349.19;5009950;28;20140;-63
2021/07/30 05:36:58;;;;;;;12.85;5.80;;;;;;;18.47;77.08;96348.31;5011246;28;20562;-64
2021/07/30 05:39:24;;;;;;;12.35;5.15;;;;;;;19.39;73.37;96355.06;5009409;28;20107;-65
2021/07/30 05:41:49;;;;;;;9.68;5.72;;;;;;;19.21;73.03;96351.91;4999187;28;20148;-64
2021/07/30 05:44:15;;;;;;;8.48;5.10;;;;;;;19.70;70.48;96348.34;5014503;28;20505;-64
2021/07/30 05:46:40;;;;;;;8.60;4.97;;;;;;;20.55;67.92;96345.28;5014102;28;20046;-64
2021/07/30 05:49:06;;;;;;;8.00;5.25;;;;;;;20.51;67.49;96349.38;5009281;28;20049;-66
2021/07/30 05:51:33;;;;;;;7.60;4.88;;;;;;;19.61;69.77;96344.22;5013274;28;20030;-64
2021/07/30 05:53:59;;;;;;;8.30;5.63;;;;;;;20.70;67.35;96345.69;5017788;28;20536;-65
2021/07/30 05:56:24;;;;;;;11.10;5.65;;;;;;;19.80;70.45;96339.78;5013060;28;20053;-65
2021/07/30 05:58:49;;;;;;;9.55;5.40;;;;;;;19.15;72.80;96340.53;5015178;28;20069;-65
2021/07/30 06:01:15;;;;;;;8.18;5.32;;;;;;;19.25;72.10;96347.09;5012115;28;20038;-65
2021/07/30 06:03:40;;;;;;;8.40;5.40;;;;;;;19.93;71.78;96342.63;5015749;28;20053;-66
2021/07/30 06:06:06;;;;;;;9.85;5.43;;;;;;;20.41;69.07;96340.13;5013346;28;20068;-64
2021/07/30 06:08:32;;;;;;;12.32;5.10;;;;;;;20.53;67.68;96349.75;5010648;28;20049;-64
2021/07/30 06:10:57;;;;;;;11.13;5.70;;;;;;;20.48;67.40;96351.06;5009455;28;20053;-65
2021/07/30 06:13:23;;;;;;;9.13;5.45;;;;;;;20.63;67.45;96359.81;4984895;28;20342;-64
2021/07/30 06:15:48;;;;;;;9.80;5.80;;;;;;;21.26;66.71;96360.31;5015147;28;20465;-64
2021/07/30 06:18:14;;;;;;;8.13;5.35;;;;;;;20.23;69.52;96352.53;5002596;28;20061;-64
2021/07/30 06:20:39;;;;;;;12.07;6.18;;;;;;;19.40;73.05;96351.06;5009981;28;20041;-64
2021/07/30 06:23:05;;;;;;;10.45;5.60;;;;;;;19.03;76.47;96344.81;5003815;28;20124;-65
2021/07/30 06:25:30;;;;;;;9.65;5.75;;;;;;;19.25;75.94;96347.09;5008971;28;20482;-65
2021/07/30 06:27:55;;;;;;;10.23;5.20;;;;;;;19.89;73.42;96347.50;5015435;28;20045;-64
2021/07/30 06:30:21;;;;;;;7.70;5.10;;;;;;;22.14;66.19;96346.69;4986655;28;20084;-65
2021/07/30 06:32:46;;;;;;;9.38;5.43;;;;;;;22.79;62.80;96336.78;5001660;28;20049;-65
2021/07/30 06:35:15;;;;;;;8.13;5.28;;;;;;;22.76;62.21;96342.47;5009478;28;20038;-65
2021/07/30 06:37:41;;;;;;;9.67;6.40;;;;;;;21.05;67.90;96348.63;4995347;28;20103;-65
2021/07/30 06:40:07;;;;;;;8.80;4.93;;;;;;;22.98;63.20;96350.84;4978529;28;20398;-65
2021/07/30 06:42:34;;;;;;;10.55;5.18;;;;;;;22.42;64.15;96358.88;5012137;28;20406;-65
2021/07/30 06:44:59;;;;;;;9.15;4.90;;;;;;;24.22;59.68;96349.81;5008774;28;20045;-65
2021/07/30 06:47:25;;;;;;;10.48;5.03;;;;;;;25.54;53.94;96366.66;5005730;28;20395;-65
2021/07/30 06:49:50;;;;;;;10.45;5.45;;;;;;;25.82;53.07;96358.88;5008734;28;20129;-65
2021/07/30 06:52:16;;;;;;;6.95;4.40;;;;;;;27.06;48.66;96360.50;5001670;28;20110;-65
2021/07/30 06:54:43;;;;;;;7.78;5.05;;;;;;;25.05;52.39;96365.75;5008549;28;20606;-65
2021/07/30 06:57:09;;;;;;;8.05;4.38;;;;;;;24.89;54.76;96361.28;5016136;28;20069;-63
2021/07/30 06:59:34;;;;;;;9.32;4.30;;;;;;;26.33;49.98;96369.13;5012544;28;20164;-66
2021/07/30 07:02:01;;;;;;;7.97;4.82;;;;;;;28.81;45.08;96353.66;5010988;28;20140;-64
2021/07/30 07:04:27;;;;;;;9.43;4.95;;;;;;;26.24;49.72;96363.59;5009091;28;20546;-64
2021/07/30 07:06:52;;;;;;;6.03;4.32;;;;;;;27.79;47.82;96356.03;5017095;28;20140;-64
2021/07/30 07:09:17;;;;;;;6.38;4.25;;;;;;;29.12;44.64;96350.13;5006811;28;20522;-66
2021/07/30 07:11:43;;;;;;;8.20;4.53;;;;;;;29.07;43.29;96351.59;5013160;28;20041;-65
2021/07/30 07:14:09;;;;;;;6.97;4.82;;;;;;;28.12;46.02;96357.75;5013679;28;20041;-64
2021/07/30 07:16:35;;;;;;;6.85;4.90;;;;;;;25.00;54.20;96355.16;5006778;28;20045;-64
2021/07/30 07:19:00;;;;;;;8.20;5.97;;;;;;;26.24;51.99;96351.59;5004842;28;20041;-64
2021/07/30 07:21:26;;;;;;;8.35;5.15;;;;;;;26.86;50.35;96345.09;5010116;28;20069;-64
2021/07/30 07:23:51;;;;;;;9.57;5.40;;;;;;;27.94;46.96;96343.97;5017603;28;20108;-63
2021/07/30 07:26:18;;;;;;;9.18;4.85;;;;;;;26.79;50.22;96348.31;5013684;28;20034;-63
2021/07/30 07:28:44;;;;;;;7.03;4.18;;;;;;;27.57;48.89;96345.25;5043161;22;20468;-64
2021/07/30 07:31:10;;;;;;;8.02;4.60;;;;;;;28.74;46.04;96333.13;5022800;28;20489;-65
2021/07/30 07:33:35;;;;;;;6.93;4.35;;;;;;;29.28;44.53;96334.63;5030146;28;20118;-65
2021/07/30 07:36:00;;;;;;;8.35;5.57;;;;;;;27.94;45.66;96344.72;5023308;28;20394;-64
2021/07/30 07:38:26;;;;;;;7.88;5.15;;;;;;;25.58;53.52;96332.84;5018746;28;20434;-64
2021/07/30 07:40:52;;;;;;;6.55;4.70;;;;;;;26.43;52.59;96326.94;5021681;28;20072;-65
2021/07/30 07:43:17;;;;;;;8.32;4.38;;;;;;;27.93;47.76;96323.50;4998848;28;20045;-65
2021/07/30 07:45:43;;;;;;;7.85;5.35;;;;;;;25.54;53.92;96319.00;5020519;28;20050;-64
2021/07/30 07:48:08;;;;;;;8.73;4.65;;;;;;;25.24;53.30;96309.63;5009963;28;20043;-65
2021/07/30 07:50:34;;;;;;;7.70;4.53;;;;;;;25.66;52.34;96323.59;5020453;28;20045;-64
2021/07/30 07:52:59;;;;;;;9.25;5.70;;;;;;;25.83;51.49;96326.00;5017591;28;20125;-64
2021/07/30 07:55:25;;;;;;;6.95;4.15;;;;;;;28.03;47.05;96319.25;5010310;28;20366;-65
2021/07/30 07:57:50;;;;;;;9.50;4.72;;;;;;;25.83;52.70;96326.75;5014090;28;20057;-66
2021/07/30 08:00:16;;;;;;;7.72;5.05;;;;;;;25.51;54.34;96314.34;5001252;28;20065;-65
2021/07/30 08:02:41;;;;;;;8.05;5.10;;;;;;;25.76;53.81;96322.28;5015360;28;20045;-64
2021/07/30 08:05:07;;;;;;;12.75;5.38;;;;;;;25.70;53.57;96320.63;5014954;28;20064;-64
2021/07/30 08:07:33;;;;;;;9.77;5.30;;;;;;;24.46;58.44;96314.81;5016758;28;20146;-65
2021/07/30 08:09:58;;;;;;;7.65;5.32;;;;;;;25.28;58.05;96315.84;5014904;28;20046;-64
2021/07/30 08:12:23;;;;;;;11.07;4.38;;;;;;;27.76;51.28;96311.22;5018385;28;20099;-65
2021/07/30 08:14:49;;;;;;;9.63;4.85;;;;;;;30.06;43.86;96319.47;5003190;28;20049;-63
2021/07/30 08:17:14;;;;;;;6.43;4.75;;;;;;;31.24;41.26;96314.06;5005821;28;20041;-66
2021/07/30 08:19:40;;;;;;;6.25;4.45;;;;;;;30.74;41.98;96319.66;5006049;28;20129;-66
2021/07/30 08:22:06;;;;;;;8.45;4.45;;;;;;;31.62;40.49;96319.41;4999402;28;20495;-66
2021/07/30 08:24:32;;;;;;;5.78;3.97;;;;;;;32.26;38.89;96307.38;5019655;28;20477;-65
2021/07/30 08:26:57;;;;;;;7.70;5.00;;;;;;;32.11;38.40;96319.81;5014104;28;20050;-65
2021/07/30 08:29:23;;;;;;;8.95;4.20;;;;;;;32.92;36.87;96311.13;5010933;28;20291;-65
2021/07/30 08:31:48;;;;;;;11.25;5.00;;;;;;;31.49;39.61;96319.97;5013479;28;20561;-65
2021/07/30 08:34:15;;;;;;;11.00;4.70;;;;;;;32.39;38.24;96316.84;5010674;28;20453;-65
2021/07/30 08:36:43;;;;;;;6.50;4.10;;;;;;;32.34;37.43;96329.00;5022332;28;20433;-65
2021/07/30 08:39:09;;;;;;;7.53;4.20;;;;;;;33.12;36.00;96326.97;5004213;28;20197;-64
2021/07/30 08:41:36;;;;;;;9.07;4.47;;;;;;;31.78;38.97;96332.78;5016280;28;20148;-63
2021/07/30 08:44:01;;;;;;;7.53;4.80;;;;;;;31.82;37.78;96321.94;4990809;28;20061;-64
2021/07/30 08:46:29;;;;;;;8.65;4.15;;;;;;;32.13;37.97;96322.13;5010289;28;20455;-66
2021/07/30 08:48:55;;;;;;;6.43;4.05;;;;;;;32.53;37.17;96325.53;5014526;28;20042;-64
2021/07/30 08:51:22;;;;;;;5.72;3.90;;;;;;;33.32;35.20;96322.16;5025429;28;20064;-66
2021/07/30 08:53:48;;;;;;;10.82;4.35;;;;;;;32.55;35.94;96318.03;5024958;28;20100;-64
2021/07/30 08:56:18;;;;;;;7.53;3.90;;;;;;;29.03;44.74;96320.06;5003816;28;20030;-64
2021/07/30 08:58:44;;;;;;;;;;;;;;;28.34;46.14;96314.25;5020093;28;20477;-65
2021/07/30 09:01:10;;;;;;;7.63;5.38;;;;;;;27.95;47.71;96306.13;5017086;28;20005;-66
2021/07/30 09:03:41;;;;;;;10.73;5.15;;;;;;;29.11;44.96;96314.72;5019465;28;20109;-67
2021/07/30 09:06:17;;;;;;;6.95;4.70;;;;;;;31.46;39.86;96304.00;5008630;28;20033;-64
2021/07/30 09:08:44;;;;;;;7.40;5.00;;;;;;;30.73;42.27;96298.34;5022412;28;20041;-64
2021/07/30 09:11:09;;;;;;;7.07;3.70;;;;;;;31.89;39.07;96309.31;5015163;28;20034;-64
2021/07/30 09:13:40;;;;;;;6.28;4.10;;;;;;;31.96;37.94;96317.28;5009476;28;20049;-64
2021/07/30 09:16:08;;;;;;;5.65;3.88;;;;;;;32.01;37.76;96302.31;5012456;28;20034;-64
2021/07/30 09:18:35;;;;;;;7.15;4.45;;;;;;;31.59;38.88;96301.41;5015831;28;20045;-64
2021/07/30 09:21:18;;;;;;;6.20;4.50;;;;;;;32.17;37.79;96297.88;5037606;28;20034;-65
2021/07/30 09:24:02;;;;;;;5.50;4.00;;;;;;;32.74;35.46;96283.44;5033089;28;20506;-65
2021/07/30 09:26:29;;;;;;;6.80;4.10;;;;;;;33.57;34.82;96285.31;5011229;28;20791;-65
2021/07/30 09:28:56;;;;;;;5.80;4.00;;;;;;;30.65;40.32;96287.53;5011780;28;20056;-64
2021/07/30 09:31:34;;;;;;;8.32;4.00;;;;;;;30.75;39.97;96285.22;5008628;28;22471;-64
2021/07/30 09:34:29;;;;;;;6.05;4.05;;;;;;;31.33;40.60;96281.91;5010192;28;20069;-64
2021/07/30 09:36:57;;;;;;;5.55;4.10;;;;;;;31.67;38.84;96275.41;5007027;28;20033;-65
2021/07/30 09:39:32;;;;;;;7.32;4.15;;;;;;;31.87;38.30;96269.41;5014525;28;20909;-64
2021/07/30 09:42:07;;;;;;;5.05;3.42;;;;;;;33.30;36.09;96276.53;5017836;28;20053;-65
2021/07/30 09:44:35;;;;;;;7.90;3.75;;;;;;;33.29;36.51;96283.50;5014166;28;20413;-65
2021/07/30 09:47:35;;;;;;;6.50;4.32;;;;;;;33.33;35.46;96272.63;5023255;28;20050;-65
2021/07/30 09:50:07;;;;;;;5.38;3.97;;;;;;;31.79;37.99;96280.50;5008103;28;20428;-65
2021/07/30 09:52:36;;;;;;;13.32;8.30;;;;;;;31.98;38.83;96274.25;5001005;28;20038;-65
2021/07/30 09:55:06;;;;;;;7.78;4.93;;;;;;;32.05;40.16;96261.66;5001250;28;20038;-64
2021/07/30 09:57:37;;;;;;;6.43;5.18;;;;;;;31.89;41.14;96260.41;5006263;28;20096;-65
2021/07/30 10:00:07;;;;;;;8.70;5.00;;;;;;;32.03;41.38;96261.38;5002244;28;20045;-67
2021/07/30 10:02:34;;;;;;;7.43;5.78;;;;;;;32.44;40.00;96246.50;5005346;28;20096;-63
2021/07/30 10:05:02;;;;;;;7.47;5.53;;;;;;;31.66;41.49;96239.88;4999166;28;20073;-64
2021/07/30 10:07:29;;;;;;;12.35;4.95;;;;;;;31.61;41.97;96225.25;5005269;28;20443;-64
2021/07/30 10:10:01;;;;;;;9.85;4.82;;;;;;;32.43;39.73;96222.28;5008836;28;20053;-65
2021/07/30 10:12:29;;;;;;;7.22;4.68;;;;;;;32.28;38.69;96219.81;5003502;28;20143;-64
2021/07/30 10:14:55;;;;;;;8.23;4.20;;;;;;;30.95;41.63;96222.03;5018001;28;20049;-64
2021/07/30 10:17:28;;;;;;;9.80;5.05;;;;;;;31.08;42.36;96235.66;5015027;28;20038;-65
2021/07/30 10:19:54;;;;;;;10.60;4.88;;;;;;;30.84;42.30;96231.25;5018083;28;20051;-65
2021/07/30 10:22:21;;;;;;;13.68;7.28;;;;;;;30.07;45.46;96230.63;5000547;28;20042;-63
2021/07/30 10:24:51;;;;;;;14.98;7.07;;;;;;;29.36;46.88;96237.00;5000706;28;20127;-64
2021/07/30 10:27:20;;;;;;;15.57;7.55;;;;;;;28.17;50.99;96246.50;5001019;28;20038;-63
2021/07/30 10:30:06;;;;;;;10.07;6.75;;;;;;;26.80;53.25;96251.53;5008885;28;20133;-62
2021/07/30 10:32:51;;;;;;;17.90;7.85;;;;;;;25.65;57.77;96263.16;5009424;28;20140;-65
2021/07/30 10:35:25;;;;;;;13.73;7.22;;;;;;;26.02;56.97;96256.50;4999657;28;20700;-61
2021/07/30 10:37:51;;;;;;;12.25;6.82;;;;;;;26.42;55.31;96258.78;5004977;28;20064;-62
2021/07/30 10:40:24;;;;;;;10.50;6.32;;;;;;;26.73;54.34;96253.97;4994744;28;20037;-63
2021/07/30 10:42:59;;;;;;;10.82;6.00;;;;;;;26.78;55.04;96242.81;5014175;28;20050;-63
2021/07/30 10:45:26;;;;;;;8.02;5.68;;;;;;;27.56;52.26;96236.03;5009851;28;20540;-63
2021/07/30 10:48:22;;;;;;;8.73;5.30;;;;;;;27.59;50.55;96237.88;5003933;28;20045;-62
2021/07/30 10:51:01;;;;;;;9.82;5.22;;;;;;;27.82;49.48;96230.47;5012205;28;20042;-62
2021/07/30 10:53:39;;;;;;;;;;;;;;;27.99;48.89;96225.06;5000916;28;20050;-63
2021/07/30 10:56:30;;;;;;;7.82;5.25;;;;;;;28.29;49.31;96217.19;4997968;28;19920;-62
2021/07/30 10:58:58;;;;;;;8.90;4.65;;;;;;;28.49;48.77;96216.34;5012851;28;20049;-62
2021/07/30 11:01:43;;;;;;;9.07;5.32;;;;;;;29.02;46.12;96210.63;5006823;28;20049;-64
2021/07/30 11:04:10;;;;;;;9.02;6.85;;;;;;;29.71;44.68;96216.91;5008657;28;20045;-64
2021/07/30 11:06:41;;;;;;;9.63;6.80;;;;;;;29.89;44.11;96206.47;5010337;28;20141;-63
2021/07/30 11:09:06;;;;;;;8.65;5.28;;;;;;;29.00;45.71;96204.72;4995613;28;20069;-64
2021/07/30 11:11:42;;;;;;;13.05;5.88;;;;;;;29.73;43.43;96203.06;5005930;28;20438;-64
2021/07/30 11:14:13;;;;;;;7.95;6.05;;;;;;;29.75;43.48;96205.41;5024584;28;20132;-64
2021/07/30 11:16:47;;;;;;;7.88;5.55;;;;;;;29.83;43.67;96208.50;5022333;28;20537;-63
2021/07/30 11:19:15;;;;;;;8.48;5.85;;;;;;;30.09;42.96;96206.28;5015143;28;20073;-63
2021/07/30 11:21:41;;;;;;;10.20;5.45;;;;;;;30.09;42.28;96200.63;5020109;28;20049;-63
2021/07/30 11:24:08;;;;;;;6.80;4.88;;;;;;;30.47;42.14;96198.38;5003209;28;20041;-63
2021/07/30 11:26:35;;;;;;;8.63;5.38;;;;;;;29.33;43.07;96195.69;5005185;28;20050;-62